createdAt,value
2023-05-19T00:01:00.468Z,101745.31
2023-05-19T00:03:27.379Z,101747.06
2023-05-19T00:05:54.206Z,101740.09
2023-05-19T00:08:23.877Z,101741.84
2023-05-19T00:10:50.703Z,101743.63
2023-05-19T00:13:17.451Z,101743.66
2023-05-19T00:15:44.397Z,101747.22
2023-05-19T00:18:14.040Z,101743.75
2023-05-19T00:20:41.366Z,101747.22
2023-05-19T00:23:08.367Z,101744.63
2023-05-19T00:25:34.841Z,101748.13
2023-05-19T00:28:02.446Z,101742.03
2023-05-19T00:30:30.262Z,101740.31
2023-05-19T00:32:57.134Z,101740.31
2023-05-19T00:35:24.234Z,101749.91
2023-05-19T00:37:50.716Z,101749.03
2023-05-19T00:40:17.411Z,101747.31
2023-05-19T00:42:43.943Z,101747.34
2023-05-19T00:45:10.638Z,101747.34
2023-05-19T00:47:37.166Z,101749.06
2023-05-19T00:50:03.849Z,101751.69
2023-05-19T00:52:30.833Z,101745.56
2023-05-19T00:54:57.401Z,101745.56
2023-05-19T00:57:24.021Z,101742.94
2023-05-19T00:59:50.619Z,101744.72
2023-05-19T01:02:18.023Z,101742.97
2023-05-19T01:04:45.096Z,101752.56
2023-05-19T01:07:12.480Z,101739.44
2023-05-19T01:09:40.724Z,101743.84
2023-05-19T01:12:07.813Z,101749.94
2023-05-19T01:14:34.365Z,101735.97
2023-05-19T01:17:15.063Z,101742.06
2023-05-19T01:20:02.224Z,101735.97
2023-05-19T01:22:47.117Z,101733.34
2023-05-19T01:25:37.465Z,101735.09
2023-05-19T01:28:31.084Z,101729.00
2023-05-19T01:31:00.288Z,101726.38
2023-05-19T01:33:29.940Z,101723.72
2023-05-19T01:35:57.843Z,101733.31
2023-05-19T01:38:25.597Z,101728.13
2023-05-19T01:40:52.909Z,101717.63
2023-05-19T01:43:21.895Z,101720.25
2023-05-19T01:45:49.115Z,101723.72
2023-05-19T01:48:16.285Z,101722.84
2023-05-19T01:50:42.944Z,101726.31
2023-05-19T01:53:09.949Z,101733.25
2023-05-19T01:55:44.378Z,101727.13
2023-05-19T01:58:26.881Z,101738.47
2023-05-19T02:00:56.723Z,101736.75
2023-05-19T02:03:53.978Z,101741.09
2023-05-19T02:06:49.634Z,101735.00
2023-05-19T02:09:23.338Z,101736.75
2023-05-19T02:11:58.756Z,101735.00
2023-05-19T02:14:31.790Z,101739.34
2023-05-19T02:16:59.465Z,101740.22
2023-05-19T02:19:30.247Z,101737.59
2023-05-19T02:21:56.779Z,101740.25
2023-05-19T02:24:23.596Z,101747.16
2023-05-19T02:26:51.851Z,101734.97
2023-05-19T02:29:19.381Z,101733.25
2023-05-19T02:31:46.131Z,101731.47
2023-05-19T02:34:12.781Z,101733.22
2023-05-19T02:36:41.476Z,101733.22
2023-05-19T02:39:08.776Z,101724.47
2023-05-19T02:41:35.345Z,101731.47
2023-05-19T02:44:01.838Z,101728.84
2023-05-19T02:46:28.365Z,101729.72
2023-05-19T02:48:54.916Z,101725.34
2023-05-19T02:51:21.554Z,101720.13
2023-05-19T02:53:48.048Z,101721.91
2023-05-19T02:56:14.504Z,101716.66
2023-05-19T02:58:43.136Z,101718.41
2023-05-19T03:01:10.013Z,101717.50
2023-05-19T03:03:36.791Z,101714.91
2023-05-19T03:06:03.679Z,101707.03
2023-05-19T03:08:30.123Z,101707.00
2023-05-19T03:10:56.584Z,101707.00
2023-05-19T03:13:23.035Z,101704.34
2023-05-19T03:15:51.109Z,101709.53
2023-05-19T03:18:17.762Z,101719.06
2023-05-19T03:20:44.697Z,101720.84
2023-05-19T03:23:11.283Z,101720.84
2023-05-19T03:25:37.818Z,101719.09
2023-05-19T03:28:04.450Z,101715.63
2023-05-19T03:30:31.190Z,101715.63
2023-05-19T03:32:57.774Z,101715.63
2023-05-19T03:35:24.319Z,101712.16
2023-05-19T03:37:50.924Z,101715.63
2023-05-19T03:40:18.828Z,101707.75
2023-05-19T03:42:45.315Z,101708.63
2023-05-19T03:45:11.829Z,101709.44
2023-05-19T03:47:38.369Z,101699.06
2023-05-19T03:50:05.359Z,101706.00
2023-05-19T03:52:31.828Z,101712.16
2023-05-19T03:54:58.659Z,101710.41
2023-05-19T03:57:25.227Z,101712.19
2023-05-19T03:59:51.888Z,101718.28
2023-05-19T04:02:18.439Z,101714.84
2023-05-19T04:04:45.067Z,101716.56
2023-05-19T04:07:11.734Z,101713.13
2023-05-19T04:09:38.964Z,101722.66
2023-05-19T04:12:05.982Z,101708.78
2023-05-19T04:14:32.475Z,101704.44
2023-05-19T04:16:59.114Z,101712.31
2023-05-19T04:19:25.736Z,101714.94
2023-05-19T04:21:52.195Z,101712.34
2023-05-19T04:24:18.655Z,101713.25
2023-05-19T04:26:47.167Z,101721.06
2023-05-19T04:29:18.170Z,101717.59
2023-05-19T04:31:45.448Z,101710.63
2023-05-19T04:34:12.005Z,101713.25
2023-05-19T04:36:39.274Z,101719.38
2023-05-19T04:39:09.227Z,101721.09
2023-05-19T04:41:35.786Z,101715.91
2023-05-19T04:44:02.301Z,101710.66
2023-05-19T04:46:30.217Z,101715.03
2023-05-19T04:48:57.185Z,101713.25
2023-05-19T04:51:29.811Z,101721.13
2023-05-19T04:53:57.909Z,101723.75
2023-05-19T04:56:24.416Z,101722.88
2023-05-19T04:58:50.998Z,101722.88
2023-05-19T05:01:17.581Z,101723.75
2023-05-19T05:03:44.658Z,101718.50
2023-05-19T05:06:11.761Z,101722.88
2023-05-19T05:08:40.458Z,101718.53
2023-05-19T05:11:07.374Z,101717.66
2023-05-19T05:13:34.359Z,101722.00
2023-05-19T05:16:01.161Z,101713.28
2023-05-19T05:18:27.867Z,101722.00
2023-05-19T05:20:54.643Z,101716.78
2023-05-19T05:23:21.328Z,101718.50
2023-05-19T05:25:48.111Z,101721.13
2023-05-19T05:28:14.856Z,101719.38
2023-05-19T05:30:41.990Z,101722.00
2023-05-19T05:33:09.250Z,101716.78
2023-05-19T05:35:36.084Z,101719.44
2023-05-19T05:38:03.332Z,101719.41
2023-05-19T05:40:29.907Z,101717.69
2023-05-19T05:42:56.841Z,101720.28
2023-05-19T05:45:23.525Z,101720.28
2023-05-19T05:47:51.340Z,101721.16
2023-05-19T05:50:18.757Z,101712.41
2023-05-19T05:52:49.826Z,101708.91
2023-05-19T05:55:19.808Z,101714.13
2023-05-19T05:57:46.311Z,101717.59
2023-05-19T06:00:15.817Z,101713.22
2023-05-19T06:02:49.322Z,101714.97
2023-05-19T06:05:16.694Z,101713.22
2023-05-19T06:07:43.824Z,101710.56
2023-05-19T06:10:10.634Z,101709.66
2023-05-19T06:12:40.586Z,101704.41
2023-05-19T06:15:08.074Z,101698.28
2023-05-19T06:17:35.933Z,101696.50
2023-05-19T06:20:05.703Z,101703.44
2023-05-19T06:22:32.332Z,101703.44
2023-05-19T06:24:58.850Z,101702.53
2023-05-19T06:27:25.654Z,101699.88
2023-05-19T06:29:52.609Z,101698.97
2023-05-19T06:32:19.227Z,101702.44
2023-05-19T06:34:46.177Z,101702.41
2023-05-19T06:37:14.830Z,101708.50
2023-05-19T06:39:41.361Z,101704.06
2023-05-19T06:42:07.843Z,101704.91
2023-05-19T06:44:34.290Z,101704.91
2023-05-19T06:47:00.824Z,101699.63
2023-05-19T06:49:29.366Z,101699.56
2023-05-19T06:51:55.835Z,101702.16
2023-05-19T06:54:22.411Z,101704.75
2023-05-19T06:56:49.153Z,101704.72
2023-05-19T06:59:16.203Z,101702.97
2023-05-19T07:01:42.707Z,101704.72
2023-05-19T07:04:09.251Z,101708.19
2023-05-19T07:06:35.773Z,101709.03
2023-05-19T07:09:05.116Z,101705.44
2023-05-19T07:11:32.131Z,101703.69
2023-05-19T07:13:58.656Z,101706.25
2023-05-19T07:16:25.218Z,101707.91
2023-05-19T07:18:51.796Z,101706.09
2023-05-19T07:21:18.337Z,101699.94
2023-05-19T07:23:44.926Z,101699.09
2023-05-19T07:26:11.646Z,101699.00
2023-05-19T07:28:39.846Z,101689.31
2023-05-19T07:31:08.122Z,101698.91
2023-05-19T07:33:34.621Z,101694.50
2023-05-19T07:36:01.185Z,101701.38
2023-05-19T07:38:28.790Z,101700.50
2023-05-19T07:40:55.408Z,101693.53
2023-05-19T07:43:21.887Z,101699.66
2023-05-19T07:45:48.475Z,101693.41
2023-05-19T07:48:15.065Z,101689.00
2023-05-19T07:50:41.690Z,101687.25
2023-05-19T07:53:08.291Z,101681.97
2023-05-19T07:55:34.855Z,101683.63
2023-05-19T07:58:01.420Z,101673.84
2023-05-19T08:00:28.389Z,101686.91
2023-05-19T08:02:56.955Z,101677.19
2023-05-19T08:05:23.865Z,101680.72
2023-05-19T08:07:50.527Z,101677.06
2023-05-19T08:10:17.414Z,101674.41
2023-05-19T08:12:44.279Z,101669.03
2023-05-19T08:15:11.818Z,101674.31
2023-05-19T08:17:38.482Z,101674.25
2023-05-19T08:20:08.370Z,101668.94
2023-05-19T08:22:35.118Z,101668.06
2023-05-19T08:25:01.636Z,101661.81
2023-05-19T08:27:28.127Z,101660.13
2023-05-19T08:29:55.332Z,101656.41
2023-05-19T08:32:21.968Z,101659.09
2023-05-19T08:34:48.822Z,101655.47
2023-05-19T08:37:15.545Z,101651.16
2023-05-19T08:39:42.216Z,101649.25
2023-05-19T08:42:09.976Z,101650.22
2023-05-19T08:44:37.823Z,101650.06
2023-05-19T08:47:05.383Z,101642.00
2023-05-19T08:49:42.943Z,101637.69
2023-05-19T08:52:52.515Z,101642.16
2023-05-19T08:55:34.401Z,101641.75
2023-05-19T08:58:03.557Z,101636.31
2023-05-19T09:00:30.634Z,101634.59
2023-05-19T09:03:00.856Z,101637.09
2023-05-19T09:05:38.995Z,101632.78
2023-05-19T09:08:05.536Z,101634.31
2023-05-19T09:10:31.998Z,101626.47
2023-05-19T09:12:58.852Z,101626.28
2023-05-19T09:15:28.440Z,101619.06
2023-05-19T09:18:15.239Z,101624.25
2023-05-19T09:20:46.031Z,101619.88
2023-05-19T09:23:17.016Z,101626.00
2023-05-19T09:25:53.689Z,101619.94
2023-05-19T09:28:23.960Z,101613.84
2023-05-19T09:31:18.814Z,101614.53
2023-05-19T09:33:46.239Z,101608.22
2023-05-19T09:36:13.831Z,101602.88
2023-05-19T09:38:40.562Z,101608.94
2023-05-19T09:41:08.615Z,101609.84
2023-05-19T09:43:35.705Z,101605.63
2023-05-19T09:46:12.947Z,101594.31
2023-05-19T09:48:41.014Z,101593.91
2023-05-19T09:51:10.685Z,101601.44
2023-05-19T09:53:38.855Z,101598.63
2023-05-19T09:56:06.072Z,101587.22
2023-05-19T09:58:37.938Z,101586.44
2023-05-19T10:01:05.609Z,101590.88
2023-05-19T10:03:33.680Z,101581.25
2023-05-19T10:06:09.138Z,101581.16
2023-05-19T10:08:37.681Z,101580.09
2023-05-19T10:11:05.532Z,101584.41
2023-05-19T10:13:32.897Z,101578.94
2023-05-19T10:16:00.634Z,101589.91
2023-05-19T10:18:29.254Z,101592.72
2023-05-19T10:20:57.751Z,101580.66
2023-05-19T10:23:24.424Z,101591.16
2023-05-19T10:25:56.037Z,101585.75
2023-05-19T10:28:27.906Z,101582.81
2023-05-19T10:30:58.697Z,101580.88
2023-05-19T10:33:53.304Z,101580.03
2023-05-19T10:36:44.914Z,101571.91
2023-05-19T10:39:25.768Z,101569.41
2023-05-19T10:42:15.972Z,101572.50
2023-05-19T10:45:17.096Z,101570.84
2023-05-19T10:47:44.606Z,101566.06
2023-05-19T10:50:11.600Z,101578.44
2023-05-19T10:52:40.077Z,101577.25
2023-05-19T10:55:17.663Z,101568.53
2023-05-19T10:57:56.794Z,101565.25
2023-05-19T11:00:31.727Z,101567.06
2023-05-19T11:03:18.616Z,101562.09
2023-05-19T11:05:50.929Z,101567.44
2023-05-19T11:08:34.806Z,101560.88
2023-05-19T11:11:16.369Z,101556.78
2023-05-19T11:13:55.014Z,101552.38
2023-05-19T11:16:29.803Z,101550.34
2023-05-19T11:18:59.072Z,101550.09
2023-05-19T11:21:41.898Z,101546.56
2023-05-19T11:24:09.528Z,101544.38
2023-05-19T11:26:43.298Z,101537.63
2023-05-19T11:29:10.706Z,101544.44
2023-05-19T11:31:39.223Z,101540.00
2023-05-19T11:34:07.211Z,101542.50
2023-05-19T11:36:35.033Z,101548.50
2023-05-19T11:39:02.526Z,101539.69
2023-05-19T11:41:30.910Z,101536.25
2023-05-19T11:43:57.760Z,101541.72
2023-05-19T11:46:25.091Z,101533.22
2023-05-19T11:48:53.533Z,101533.69
2023-05-19T11:51:21.638Z,101530.66
2023-05-19T11:53:49.759Z,101524.28
2023-05-19T11:56:16.405Z,101525.69
2023-05-19T11:58:42.913Z,101526.94
2023-05-19T12:01:10.237Z,101509.91
2023-05-19T12:03:36.941Z,101525.09
2023-05-19T12:06:05.828Z,101534.00
2023-05-19T12:08:32.619Z,101519.91
2023-05-19T12:11:01.829Z,101517.56
2023-05-19T12:13:28.906Z,101514.00
2023-05-19T12:16:00.534Z,101514.91
2023-05-19T12:18:30.763Z,101512.69
2023-05-19T12:20:57.554Z,101507.53
2023-05-19T12:23:24.866Z,101520.50
2023-05-19T12:25:51.784Z,101496.25
2023-05-19T12:28:19.432Z,101493.41
2023-05-19T12:30:52.155Z,101495.44
2023-05-19T12:33:19.711Z,101494.00
2023-05-19T12:35:47.745Z,101484.72
2023-05-19T12:38:14.695Z,101478.03
2023-05-19T12:40:41.722Z,101480.66
2023-05-19T12:43:09.735Z,101467.56
2023-05-19T12:45:37.397Z,101475.19
2023-05-19T12:48:12.155Z,101468.91
2023-05-19T12:50:38.928Z,101465.56
2023-05-19T12:53:09.092Z,101475.16
2023-05-19T12:55:43.888Z,101467.00
2023-05-19T12:58:11.921Z,101470.69
2023-05-19T13:00:43.508Z,101479.03
2023-05-19T13:03:16.533Z,101466.34
2023-05-19T13:05:46.608Z,101471.06
2023-05-19T13:08:18.667Z,101465.34
2023-05-19T13:10:46.036Z,101469.78
2023-05-19T13:13:13.636Z,101475.72
2023-05-19T13:15:48.721Z,101484.38
2023-05-19T13:18:15.813Z,101460.78
2023-05-19T13:20:44.509Z,101477.25
2023-05-19T13:23:11.813Z,101474.75
2023-05-19T13:25:38.713Z,101462.09
2023-05-19T13:28:06.004Z,101468.75
2023-05-19T13:30:34.762Z,101471.97
2023-05-19T13:33:01.931Z,101469.66
2023-05-19T13:35:28.962Z,101462.69
2023-05-19T13:37:55.485Z,101458.78
2023-05-19T13:40:23.885Z,101457.94
2023-05-19T13:42:50.371Z,101455.53
2023-05-19T13:45:17.341Z,101449.31
2023-05-19T13:47:43.922Z,101450.09
2023-05-19T13:50:10.607Z,101459.47
2023-05-19T13:52:37.108Z,101441.69
2023-05-19T13:55:03.990Z,101449.44
2023-05-19T13:57:30.475Z,101445.91
2023-05-19T14:00:03.310Z,101442.88
2023-05-19T14:02:30.948Z,101442.44
2023-05-19T14:04:58.075Z,101435.34
2023-05-19T14:07:25.399Z,101439.78
2023-05-19T14:09:52.514Z,101430.31
2023-05-19T14:12:20.240Z,101434.09
2023-05-19T14:14:50.116Z,101433.28
2023-05-19T14:17:16.696Z,101433.44
2023-05-19T14:19:43.150Z,101428.84
2023-05-19T14:22:09.700Z,101434.00
2023-05-19T14:24:36.279Z,101435.25
2023-05-19T14:27:02.809Z,101441.72
2023-05-19T14:29:31.113Z,101433.44
2023-05-19T14:31:57.828Z,101437.06
2023-05-19T14:34:24.419Z,101428.31
2023-05-19T14:36:51.004Z,101423.94
2023-05-19T14:39:17.472Z,101420.56
2023-05-19T14:41:44.023Z,101417.00
2023-05-19T14:44:10.666Z,101419.34
2023-05-19T14:46:37.168Z,101420.06
2023-05-19T14:49:04.179Z,101420.63
2023-05-19T14:51:31.585Z,101414.53
2023-05-19T14:53:58.116Z,101417.72
2023-05-19T14:56:24.607Z,101415.13
2023-05-19T14:58:51.107Z,101401.34
2023-05-19T15:01:17.719Z,101423.38
2023-05-19T15:03:44.293Z,101410.69
2023-05-19T15:06:11.169Z,101409.69
2023-05-19T15:08:39.161Z,101409.66
2023-05-19T15:11:05.938Z,101408.09
2023-05-19T15:13:32.582Z,101406.84
2023-05-19T15:16:15.632Z,101400.16
2023-05-19T15:18:43.839Z,101410.84
2023-05-19T15:21:10.481Z,101401.22
2023-05-19T15:23:36.955Z,101405.13
2023-05-19T15:26:03.845Z,101397.59
2023-05-19T15:28:30.372Z,101397.91
2023-05-19T15:30:56.877Z,101411.16
2023-05-19T15:33:23.461Z,101406.09
2023-05-19T15:35:52.007Z,101395.56
2023-05-19T15:38:19.508Z,101394.47
2023-05-19T15:40:47.226Z,101395.41
2023-05-19T15:43:14.106Z,101390.75
2023-05-19T15:45:40.950Z,101393.84
2023-05-19T15:48:07.783Z,101393.63
2023-05-19T15:50:34.742Z,101388.13
2023-05-19T15:53:01.799Z,101390.69
2023-05-19T15:55:28.354Z,101382.25
2023-05-19T15:57:54.854Z,101387.88
2023-05-19T16:00:21.485Z,101380.41
2023-05-19T16:02:48.317Z,101377.69
2023-05-19T16:05:14.879Z,101376.50
2023-05-19T16:07:42.131Z,101379.97
2023-05-19T16:10:09.333Z,101376.19
2023-05-19T16:12:36.783Z,101368.38
2023-05-19T16:15:03.834Z,101370.47
2023-05-19T16:17:30.635Z,101368.75
2023-05-19T16:19:57.273Z,101367.88
2023-05-19T16:22:24.904Z,101370.28
2023-05-19T16:24:52.346Z,101367.03
2023-05-19T16:27:19.112Z,101352.84
2023-05-19T16:29:45.834Z,101365.94
2023-05-19T16:32:12.776Z,101357.13
2023-05-19T16:34:39.599Z,101364.22
2023-05-19T16:37:06.340Z,101367.06
2023-05-19T16:39:32.894Z,101362.66
2023-05-19T16:42:00.644Z,101362.00
2023-05-19T16:44:27.129Z,101359.34
2023-05-19T16:46:56.635Z,101355.38
2023-05-19T16:49:23.215Z,101357.78
2023-05-19T16:51:50.034Z,101353.22
2023-05-19T16:54:16.693Z,101352.47
2023-05-19T16:56:43.207Z,101351.34
2023-05-19T16:59:09.798Z,101351.78
2023-05-19T17:01:36.398Z,101354.25
2023-05-19T17:04:02.942Z,101345.72
2023-05-19T17:06:29.534Z,101346.06
2023-05-19T17:08:56.116Z,101354.16
2023-05-19T17:11:22.721Z,101348.06
2023-05-19T17:13:49.258Z,101353.63
2023-05-19T17:16:15.972Z,101348.19
2023-05-19T17:18:43.744Z,101345.16
2023-05-19T17:21:10.672Z,101348.91
2023-05-19T17:23:37.848Z,101341.88
2023-05-19T17:26:04.672Z,101338.25
2023-05-19T17:28:31.215Z,101340.59
2023-05-19T17:30:57.835Z,101349.53
2023-05-19T17:33:24.520Z,101346.34
2023-05-19T17:35:51.221Z,101348.03
2023-05-19T17:38:17.702Z,101339.56
2023-05-19T17:40:44.424Z,101348.88
2023-05-19T17:43:10.977Z,101345.75
2023-05-19T17:45:37.430Z,101354.34
2023-05-19T17:48:04.753Z,101359.75
2023-05-19T17:50:31.432Z,101364.69
2023-05-19T17:52:58.418Z,101357.94
2023-05-19T17:55:29.722Z,101364.53
2023-05-19T17:57:56.858Z,101367.03
2023-05-19T18:00:24.973Z,101374.44
2023-05-19T18:02:52.030Z,101374.50
2023-05-19T18:05:18.932Z,101363.88
2023-05-19T18:07:45.810Z,101377.38
2023-05-19T18:10:15.370Z,101369.34
2023-05-19T18:12:41.989Z,101371.22
2023-05-19T18:15:08.838Z,101366.44
2023-05-19T18:17:35.496Z,101368.47
2023-05-19T18:20:02.370Z,101370.47
2023-05-19T18:22:28.954Z,101374.66
2023-05-19T18:24:56.243Z,101366.72
2023-05-19T18:27:22.911Z,101377.00
2023-05-19T18:29:49.358Z,101380.59
2023-05-19T18:32:17.674Z,101381.69
2023-05-19T18:34:44.300Z,101382.00
2023-05-19T18:37:10.914Z,101379.47
2023-05-19T18:39:37.431Z,101377.81
2023-05-19T18:42:04.163Z,101381.75
2023-05-19T18:44:30.697Z,101379.75
2023-05-19T18:46:57.183Z,101383.59
2023-05-19T18:49:24.893Z,101380.75
2023-05-19T18:51:51.617Z,101380.59
2023-05-19T18:54:18.189Z,101386.84
2023-05-19T18:56:44.730Z,101393.47
2023-05-19T18:59:11.444Z,101390.16
2023-05-19T19:01:38.057Z,101393.13
2023-05-19T19:04:04.802Z,101401.38
2023-05-19T19:06:31.792Z,101400.03
2023-05-19T19:08:58.310Z,101403.72
2023-05-19T19:11:24.821Z,101410.31
2023-05-19T19:13:51.488Z,101412.25
2023-05-19T19:16:18.196Z,101410.50
2023-05-19T19:18:44.890Z,101415.03
2023-05-19T19:21:11.431Z,101412.47
2023-05-19T19:23:38.122Z,101419.63
2023-05-19T19:26:04.653Z,101417.19
2023-05-19T19:28:31.213Z,101422.78
2023-05-19T19:30:57.742Z,101417.75
2023-05-19T19:33:24.748Z,101420.53
2023-05-19T19:35:51.502Z,101426.91
2023-05-19T19:38:18.062Z,101427.91
2023-05-19T19:40:44.597Z,101436.13
2023-05-19T19:43:11.345Z,101424.91
2023-05-19T19:45:39.536Z,101429.53
2023-05-19T19:48:07.208Z,101430.56
2023-05-19T19:50:34.512Z,101432.47
2023-05-19T19:53:01.384Z,101430.78
2023-05-19T19:55:28.888Z,101436.25
2023-05-19T19:57:55.470Z,101436.25
2023-05-19T20:00:21.974Z,101435.59
2023-05-19T20:03:03.860Z,101435.59
2023-05-19T20:05:31.416Z,101431.28
2023-05-19T20:07:57.999Z,101436.16
2023-05-19T20:10:24.611Z,101443.31
2023-05-19T20:12:51.823Z,101443.25
2023-05-19T20:15:18.594Z,101443.50
2023-05-19T20:17:45.800Z,101449.72
2023-05-19T20:20:13.042Z,101442.94
2023-05-19T20:22:39.645Z,101458.09
2023-05-19T20:25:06.608Z,101460.72
2023-05-19T20:27:33.215Z,101454.56
2023-05-19T20:29:59.848Z,101453.72
2023-05-19T20:32:26.426Z,101457.41
2023-05-19T20:34:53.064Z,101449.69
2023-05-19T20:37:20.988Z,101458.63
2023-05-19T20:39:47.751Z,101462.09
2023-05-19T20:42:14.341Z,101463.97
2023-05-19T20:44:41.534Z,101455.25
2023-05-19T20:47:08.483Z,101461.47
2023-05-19T20:49:35.214Z,101457.09
2023-05-19T20:52:02.041Z,101460.88
2023-05-19T20:54:28.564Z,101464.66
2023-05-19T20:56:55.088Z,101460.34
2023-05-19T20:59:21.965Z,101469.19
2023-05-19T21:01:48.543Z,101466.69
2023-05-19T21:04:15.096Z,101469.47
2023-05-19T21:06:41.669Z,101466.03
2023-05-19T21:09:08.197Z,101469.81
2023-05-19T21:11:34.730Z,101468.13
2023-05-19T21:14:04.186Z,101470.06
2023-05-19T21:16:31.426Z,101462.19
2023-05-19T21:18:58.104Z,101478.19
2023-05-19T21:21:24.900Z,101473.84
2023-05-19T21:23:51.593Z,101475.59
2023-05-19T21:26:18.211Z,101479.13
2023-05-19T21:28:44.760Z,101482.78
2023-05-19T21:31:11.341Z,101475.03
2023-05-19T21:33:38.028Z,101471.69
2023-05-19T21:36:04.833Z,101470.84
2023-05-19T21:38:31.375Z,101479.66
2023-05-19T21:40:57.879Z,101481.66
2023-05-19T21:43:24.392Z,101480.72
2023-05-19T21:45:50.927Z,101477.25
2023-05-19T21:48:17.751Z,101486.22
2023-05-19T21:50:44.750Z,101475.78
2023-05-19T21:53:11.234Z,101471.41
2023-05-19T21:55:37.776Z,101476.84
2023-05-19T21:58:04.300Z,101474.31
2023-05-19T22:00:30.830Z,101470.91
2023-05-19T22:02:57.693Z,101473.59
2023-05-19T22:05:24.271Z,101470.31
2023-05-19T22:07:50.758Z,101482.84
2023-05-19T22:10:17.418Z,101481.97
2023-05-19T22:12:44.017Z,101474.31
2023-05-19T22:15:11.407Z,101478.56
2023-05-19T22:17:38.030Z,101480.44
2023-05-19T22:20:05.362Z,101476.94
2023-05-19T22:22:31.885Z,101479.53
2023-05-19T22:24:58.615Z,101481.31
2023-05-19T22:27:25.206Z,101481.31
2023-05-19T22:29:51.759Z,101482.22
2023-05-19T22:32:19.474Z,101483.13
2023-05-19T22:34:46.464Z,101484.13
2023-05-19T22:37:13.176Z,101483.31
2023-05-19T22:39:39.680Z,101480.69
2023-05-19T22:42:06.234Z,101480.72
2023-05-19T22:44:32.909Z,101483.38
2023-05-19T22:46:59.486Z,101477.41
2023-05-19T22:49:27.405Z,101471.22
2023-05-19T22:51:53.969Z,101469.63
2023-05-19T22:54:20.653Z,101481.09
2023-05-19T22:56:48.899Z,101476.88
2023-05-19T22:59:17.895Z,101466.34
2023-05-19T23:01:46.530Z,101471.56
2023-05-19T23:04:13.968Z,101470.66
2023-05-19T23:06:41.575Z,101468.97
2023-05-19T23:09:08.174Z,101474.38
2023-05-19T23:11:35.884Z,101474.47
2023-05-19T23:14:02.531Z,101463.97
2023-05-19T23:16:29.091Z,101475.47
2023-05-19T23:18:55.736Z,101469.38
2023-05-19T23:21:22.291Z,101473.75
2023-05-19T23:23:49.798Z,101464.13
2023-05-19T23:26:16.632Z,101476.50
2023-05-19T23:28:43.300Z,101471.25
2023-05-19T23:31:10.261Z,101468.72
2023-05-19T23:33:37.017Z,101471.47
2023-05-19T23:36:07.913Z,101477.72
2023-05-19T23:38:35.236Z,101476.91
2023-05-19T23:41:02.286Z,101467.22
2023-05-19T23:43:28.857Z,101466.44
2023-05-19T23:45:55.522Z,101472.66
2023-05-19T23:48:22.009Z,101463.84
2023-05-19T23:50:48.465Z,101464.75
2023-05-19T23:53:15.168Z,101458.72
2023-05-19T23:55:42.298Z,101452.63
2023-05-19T23:58:08.878Z,101457.75
